createdAt,value
2023-01-12T00:00:05.334Z,895.9730
2023-01-12T00:00:16.527Z,902.0270
2023-01-12T00:00:27.732Z,892.3800
2023-01-12T00:00:38.950Z,890.0000
2023-01-12T00:00:50.070Z,890.0000
2023-01-12T00:01:01.271Z,892.3800
2023-01-12T00:01:12.472Z,890.5940
2023-01-12T00:01:23.671Z,895.3720
2023-01-12T00:01:34.890Z,905.6990
2023-01-12T00:01:46.072Z,890.5940
2023-01-12T00:01:57.316Z,887.6330
2023-01-12T00:02:08.414Z,894.7720
2023-01-12T00:02:19.576Z,893.5740
2023-01-12T00:02:30.660Z,888.8150
2023-01-12T00:02:41.792Z,888.8150
2023-01-12T00:02:52.956Z,892.3800
2023-01-12T00:03:04.171Z,895.3720
2023-01-12T00:03:15.413Z,894.7720
2023-01-12T00:03:26.556Z,893.5740
2023-01-12T00:03:37.759Z,889.4070
2023-01-12T00:03:48.951Z,895.3720
2023-01-12T00:04:00.228Z,902.0270
2023-01-12T00:04:11.412Z,888.8150
2023-01-12T00:04:22.634Z,895.9730
2023-01-12T00:04:33.811Z,894.1730
2023-01-12T00:04:44.955Z,895.9730
2023-01-12T00:04:56.149Z,888.8150
2023-01-12T00:05:07.352Z,887.0430
2023-01-12T00:05:18.451Z,890.0000
2023-01-12T00:05:29.520Z,888.2240
2023-01-12T00:05:40.631Z,890.0000
2023-01-12T00:05:51.830Z,895.9730
2023-01-12T00:06:02.880Z,893.5740
2023-01-12T00:06:13.930Z,895.3720
2023-01-12T00:06:25.112Z,898.3850
2023-01-12T00:06:36.315Z,896.5750
2023-01-12T00:06:47.510Z,898.9900
2023-01-12T00:06:58.712Z,886.4540
2023-01-12T00:07:09.918Z,894.1730
2023-01-12T00:07:21.017Z,897.7810
2023-01-12T00:07:32.094Z,895.9730
2023-01-12T00:07:43.145Z,897.1770
2023-01-12T00:07:54.250Z,892.9770
2023-01-12T00:08:05.425Z,894.1730
2023-01-12T00:08:16.462Z,899.5960
2023-01-12T00:08:27.519Z,888.8150
2023-01-12T00:08:38.567Z,899.5960
2023-01-12T00:08:49.759Z,900.2020
2023-01-12T00:09:00.801Z,899.5960
2023-01-12T00:09:11.850Z,886.4540
2023-01-12T00:09:23.040Z,897.7810
2023-01-12T00:09:34.102Z,897.1770
2023-01-12T00:09:45.171Z,897.7810
2023-01-12T00:09:56.309Z,894.7720
2023-01-12T00:10:07.516Z,906.3140
2023-01-12T00:10:18.714Z,904.4720
2023-01-12T00:10:29.936Z,893.5740
2023-01-12T00:10:41.110Z,903.2480
2023-01-12T00:10:52.317Z,902.0270
2023-01-12T00:11:03.517Z,903.8590
2023-01-12T00:11:14.711Z,899.5960
2023-01-12T00:11:25.901Z,904.4720
2023-01-12T00:11:36.953Z,902.0270
2023-01-12T00:11:48.002Z,903.8590
2023-01-12T00:11:59.190Z,908.7810
2023-01-12T00:12:10.390Z,908.1630
2023-01-12T00:12:21.621Z,915.0100
2023-01-12T00:12:32.791Z,910.6410
2023-01-12T00:12:43.840Z,912.5090
2023-01-12T00:12:54.881Z,915.6380
2023-01-12T00:13:06.110Z,919.4210
2023-01-12T00:13:17.271Z,918.7890
2023-01-12T00:13:28.481Z,920.0550
2023-01-12T00:13:39.679Z,914.3840
2023-01-12T00:13:50.872Z,920.0550
2023-01-12T00:14:02.070Z,923.8750
2023-01-12T00:14:13.271Z,925.1560
2023-01-12T00:14:24.492Z,921.3250
2023-01-12T00:14:35.672Z,930.9620
2023-01-12T00:14:46.732Z,927.7280
2023-01-12T00:14:57.818Z,925.1560
2023-01-12T00:15:08.962Z,924.5150
2023-01-12T00:15:20.219Z,934.8740
2023-01-12T00:15:31.351Z,925.7980
2023-01-12T00:15:42.568Z,929.0190
2023-01-12T00:15:53.682Z,938.8190
2023-01-12T00:16:04.790Z,929.6660
2023-01-12T00:16:15.890Z,940.8030
2023-01-12T00:16:27.100Z,940.8030
2023-01-12T00:16:38.226Z,938.8190
2023-01-12T00:16:49.430Z,942.1310
2023-01-12T00:17:00.631Z,940.8030
2023-01-12T00:17:11.975Z,946.8090
2023-01-12T00:17:23.220Z,948.8270
2023-01-12T00:17:34.251Z,950.8550
2023-01-12T00:17:45.434Z,942.7970
2023-01-12T00:17:56.499Z,944.1300
2023-01-12T00:18:07.525Z,948.1530
2023-01-12T00:18:18.711Z,949.5020
2023-01-12T00:18:29.766Z,940.1410
2023-01-12T00:18:40.836Z,952.2110
2023-01-12T00:18:51.891Z,950.1780
2023-01-12T00:19:02.951Z,962.5090
2023-01-12T00:19:14.069Z,961.8160
2023-01-12T00:19:25.292Z,959.0520
2023-01-12T00:19:36.351Z,964.5950
2023-01-12T00:19:47.411Z,967.3910
2023-01-12T00:19:58.467Z,963.2030
2023-01-12T00:20:09.548Z,961.8160
2023-01-12T00:20:20.665Z,970.2030
2023-01-12T00:20:31.843Z,969.4990
2023-01-12T00:20:43.029Z,968.7950
2023-01-12T00:20:54.137Z,973.7420
2023-01-12T00:21:05.203Z,975.8770
2023-01-12T00:21:16.318Z,968.7950
2023-01-12T00:21:27.518Z,973.7420
2023-01-12T00:21:38.582Z,973.0320
2023-01-12T00:21:49.654Z,979.4570
2023-01-12T00:22:00.802Z,971.6160
2023-01-12T00:22:12.525Z,973.0320
2023-01-12T00:22:23.711Z,975.8770
2023-01-12T00:22:34.760Z,981.6180
2023-01-12T00:22:45.916Z,979.4570
2023-01-12T00:22:57.110Z,981.6180
2023-01-12T00:23:08.316Z,980.8960
2023-01-12T00:23:19.361Z,984.5130
2023-01-12T00:23:30.470Z,978.7390
2023-01-12T00:23:41.591Z,983.0630
2023-01-12T00:23:52.800Z,984.5130
2023-01-12T00:24:04.000Z,984.5130
2023-01-12T00:24:15.190Z,981.6180
2023-01-12T00:24:26.279Z,990.3560
2023-01-12T00:24:37.376Z,990.3560
2023-01-12T00:24:48.432Z,997.7580
2023-01-12T00:24:59.577Z,994.0430
2023-01-12T00:25:10.630Z,997.0130
2023-01-12T00:25:21.756Z,991.8280
2023-01-12T00:25:32.952Z,996.2690
2023-01-12T00:25:43.992Z,993.3040
2023-01-12T00:25:55.047Z,1000.7500
2023-01-12T00:26:06.249Z,999.2510
2023-01-12T00:26:17.431Z,1008.3080
2023-01-12T00:26:28.649Z,1007.5470
2023-01-12T00:26:39.851Z,1009.8340
2023-01-12T00:26:51.033Z,1009.0700
2023-01-12T00:27:02.238Z,1008.3080
2023-01-12T00:27:13.447Z,1009.0700
2023-01-12T00:27:24.726Z,1014.4380
2023-01-12T00:27:35.840Z,1012.8980
2023-01-12T00:27:47.032Z,1006.7870
2023-01-12T00:27:58.255Z,1015.9820
2023-01-12T00:28:09.461Z,1006.7870
2023-01-12T00:28:20.636Z,1014.4380
2023-01-12T00:28:31.835Z,1013.6670
2023-01-12T00:28:42.883Z,1010.5980
2023-01-12T00:28:53.954Z,1012.8980
2023-01-12T00:29:05.119Z,1024.5590
2023-01-12T00:29:16.197Z,1025.3459
2023-01-12T00:29:27.270Z,1018.3070
2023-01-12T00:29:38.408Z,1020.6420
2023-01-12T00:29:49.459Z,1033.2820
2023-01-12T00:30:00.481Z,1031.6851
2023-01-12T00:30:11.680Z,1021.4230
2023-01-12T00:30:22.878Z,1028.5050
2023-01-12T00:30:34.079Z,1026.1340
2023-01-12T00:30:45.271Z,1024.5590
2023-01-12T00:30:56.534Z,1034.0820
2023-01-12T00:31:07.689Z,1030.8879
2023-01-12T00:31:18.943Z,1026.9230
2023-01-12T00:31:30.170Z,1031.6851
2023-01-12T00:31:41.271Z,1035.6870
2023-01-12T00:31:52.338Z,1032.4830
2023-01-12T00:32:03.372Z,1034.8840
2023-01-12T00:32:14.560Z,1036.4910
2023-01-12T00:32:25.793Z,1038.9110
2023-01-12T00:32:36.978Z,1046.2380
2023-01-12T00:32:48.155Z,1045.4189
2023-01-12T00:32:59.230Z,1047.8810
2023-01-12T00:33:10.319Z,1045.4189
2023-01-12T00:33:21.437Z,1055.3361
2023-01-12T00:33:32.631Z,1053.6700
2023-01-12T00:33:43.838Z,1052.8390
2023-01-12T00:33:55.046Z,1042.1550
2023-01-12T00:34:06.268Z,1043.7841
2023-01-12T00:34:17.466Z,1042.9690
2023-01-12T00:34:29.682Z,1032.4830
2023-01-12T00:34:41.155Z,1042.9690
2023-01-12T00:34:52.311Z,1033.2820
2023-01-12T00:35:03.519Z,1058.6840
2023-01-12T00:35:14.708Z,1047.8810
2023-01-12T00:35:25.912Z,1053.6700
2023-01-12T00:35:37.115Z,1053.6700
2023-01-12T00:35:48.151Z,1059.5240
2023-01-12T00:35:59.191Z,1058.6840
2023-01-12T00:36:10.433Z,1052.8390
2023-01-12T00:36:21.590Z,1064.5930
2023-01-12T00:36:32.850Z,1058.6840
2023-01-12T00:36:43.996Z,1056.1710
2023-01-12T00:36:55.215Z,1066.2939
2023-01-12T00:37:06.428Z,1068.0000
2023-01-12T00:37:17.599Z,1068.0000
2023-01-12T00:37:28.691Z,1068.8550
2023-01-12T00:37:39.757Z,1073.1510
2023-01-12T00:37:50.878Z,1069.7120
2023-01-12T00:38:02.072Z,1069.7120
2023-01-12T00:38:13.285Z,1066.2939
2023-01-12T00:38:24.472Z,1064.5930
2023-01-12T00:38:35.761Z,1076.6130
2023-01-12T00:38:46.903Z,1070.5690
2023-01-12T00:38:58.075Z,1075.7450
2023-01-12T00:39:09.274Z,1079.2240
2023-01-12T00:39:20.476Z,1077.4821
2023-01-12T00:39:31.533Z,1085.3660
2023-01-12T00:39:53.245Z,1084.4840
2023-01-12T00:40:02.468Z,1075.7450
2023-01-12T00:40:14.267Z,1071.4290
2023-01-12T00:40:25.432Z,1074.0140
2023-01-12T00:40:36.641Z,1081.8480
2023-01-12T00:40:47.829Z,1080.9720
2023-01-12T00:40:59.042Z,1086.2490
2023-01-12T00:41:10.264Z,1078.3521
2023-01-12T00:41:21.439Z,1076.6130
2023-01-12T00:41:32.640Z,1074.8790
2023-01-12T00:41:43.840Z,1081.8480
2023-01-12T00:41:55.036Z,1087.1340
2023-01-12T00:42:06.135Z,1085.3660
2023-01-12T00:42:17.212Z,1088.9070
2023-01-12T00:42:28.314Z,1087.1340
2023-01-12T00:42:39.547Z,1093.3660
2023-01-12T00:42:50.593Z,1091.5780
2023-01-12T00:43:01.660Z,1088.9070
2023-01-12T00:43:12.740Z,1087.1340
2023-01-12T00:43:23.772Z,1085.3660
2023-01-12T00:43:34.838Z,1090.6860
2023-01-12T00:43:46.087Z,1097.8621
2023-01-12T00:43:57.274Z,1093.3660
2023-01-12T00:44:08.473Z,1102.3950
2023-01-12T00:44:19.682Z,1096.0590
2023-01-12T00:44:30.877Z,1093.3660
2023-01-12T00:44:42.077Z,1102.3950
2023-01-12T00:44:53.131Z,1105.1320
2023-01-12T00:45:04.179Z,1104.2180
2023-01-12T00:45:15.351Z,1106.0480
2023-01-12T00:45:26.558Z,1107.8840
2023-01-12T00:45:37.630Z,1102.3950
2023-01-12T00:45:48.738Z,1113.4280
2023-01-12T00:45:59.895Z,1116.2209
2023-01-12T00:46:11.061Z,1110.6490
2023-01-12T00:46:22.308Z,1113.4280
2023-01-12T00:46:33.436Z,1118.0900
2023-01-12T00:46:44.631Z,1116.2209
2023-01-12T00:46:55.682Z,1121.8490
2023-01-12T00:47:06.719Z,1123.7371
2023-01-12T00:47:17.929Z,1116.2209
2023-01-12T00:47:29.113Z,1119.9659
2023-01-12T00:47:40.351Z,1118.0900
2023-01-12T00:47:51.513Z,1129.4420
2023-01-12T00:48:02.727Z,1131.3560
2023-01-12T00:48:13.858Z,1134.2400
2023-01-12T00:48:24.926Z,1127.5341
2023-01-12T00:48:35.990Z,1140.0510
2023-01-12T00:48:47.037Z,1128.4871
2023-01-12T00:48:58.081Z,1124.6840
2023-01-12T00:49:09.276Z,1130.3979
2023-01-12T00:49:20.475Z,1125.6320
2023-01-12T00:49:31.686Z,1137.1379
2023-01-12T00:49:42.879Z,1132.3160
2023-01-12T00:49:53.955Z,1128.4871
2023-01-12T00:50:05.006Z,1139.0790
2023-01-12T00:50:19.192Z,1136.1700
2023-01-12T00:50:30.440Z,1118.0900
2023-01-12T00:50:41.510Z,1126.5820
2023-01-12T00:50:52.551Z,1131.3560
2023-01-12T00:51:03.622Z,1123.7371
2023-01-12T00:51:14.713Z,1126.5820
2023-01-12T00:51:25.912Z,1131.3560
2023-01-12T00:51:37.118Z,1145.9230
2023-01-12T00:51:48.340Z,1139.0790
2023-01-12T00:51:59.512Z,1127.5341
2023-01-12T00:52:15.479Z,1137.1379
2023-01-12T00:52:31.807Z,1131.3560
2023-01-12T00:52:43.250Z,1128.4871
2023-01-12T00:52:54.317Z,1125.6320
2023-01-12T00:53:05.442Z,1128.4871
2023-01-12T00:53:16.476Z,1131.3560
2023-01-12T00:53:27.521Z,1142.0020
2023-01-12T00:53:38.711Z,1126.5820
2023-01-12T00:53:49.777Z,1138.1071
2023-01-12T00:54:00.804Z,1139.0790
2023-01-12T00:54:11.991Z,1146.9070
2023-01-12T00:54:23.197Z,1138.1071
2023-01-12T00:54:34.394Z,1147.8929
2023-01-12T00:54:45.602Z,1142.9790
2023-01-12T00:54:56.648Z,1143.9590
2023-01-12T00:55:07.676Z,1142.9790
2023-01-12T00:55:18.743Z,1142.0020
2023-01-12T00:55:29.760Z,1146.9070
2023-01-12T00:55:40.953Z,1146.9070
2023-01-12T00:55:52.161Z,1158.8540
2023-01-12T00:56:03.368Z,1142.9790
2023-01-12T00:56:14.565Z,1144.9399
2023-01-12T00:56:25.751Z,1156.8459
2023-01-12T00:56:36.951Z,1135.2040
2023-01-12T00:56:48.156Z,1160.8700
2023-01-12T00:56:59.191Z,1149.8710
2023-01-12T00:57:10.231Z,1156.8459
2023-01-12T00:57:21.429Z,1160.8700
2023-01-12T00:57:32.551Z,1164.9210
2023-01-12T00:57:43.664Z,1150.8621
2023-01-12T00:57:54.716Z,1156.8459
2023-01-12T00:58:05.771Z,1160.8700
2023-01-12T00:58:16.823Z,1158.8540
2023-01-12T00:58:28.013Z,1157.8490
2023-01-12T00:58:39.191Z,1156.8459
2023-01-12T00:58:50.394Z,1160.8700
2023-01-12T00:59:01.601Z,1171.0530
2023-01-12T00:59:12.799Z,1162.8920
2023-01-12T00:59:24.032Z,1163.9060
2023-01-12T00:59:35.187Z,1163.9060
2023-01-12T00:59:46.281Z,1162.8920
2023-01-12T00:59:57.421Z,1172.0811
2023-01-12T01:00:08.472Z,1162.8920
2023-01-12T01:00:19.680Z,1175.1760
2023-01-12T01:00:30.870Z,1170.0260
2023-01-12T01:00:41.926Z,1171.0530
2023-01-12T01:00:52.997Z,1164.9210
2023-01-12T01:01:04.226Z,1175.1760
2023-01-12T01:01:15.523Z,1164.9210
2023-01-12T01:01:26.731Z,1173.1110
2023-01-12T01:01:38.015Z,1171.0530
2023-01-12T01:01:49.440Z,1175.1760
2023-01-12T01:02:00.655Z,1179.3290
2023-01-12T01:02:11.948Z,1173.1110
2023-01-12T01:02:23.352Z,1180.3710
2023-01-12T01:02:34.512Z,1176.2111
2023-01-12T01:02:45.675Z,1176.2111
2023-01-12T01:02:56.846Z,1177.2490
2023-01-12T01:03:07.990Z,1175.1760
2023-01-12T01:03:19.051Z,1181.4160
2023-01-12T01:03:30.100Z,1188.7800
2023-01-12T01:03:41.271Z,1175.1760
2023-01-12T01:03:52.472Z,1181.4160
2023-01-12T01:04:03.692Z,1196.2371
2023-01-12T01:04:14.756Z,1183.5110
2023-01-12T01:04:25.838Z,1189.8400
2023-01-12T01:04:36.956Z,1187.7220
2023-01-12T01:04:48.151Z,1191.9640
2023-01-12T01:04:59.361Z,1198.3840
2023-01-12T01:05:10.560Z,1196.2371
2023-01-12T01:05:21.757Z,1186.6670
2023-01-12T01:05:32.954Z,1191.9640
2023-01-12T01:05:44.151Z,1200.5400
2023-01-12T01:05:55.350Z,1189.8400
2023-01-12T01:06:06.558Z,1185.6130
2023-01-12T01:06:17.594Z,1194.0970
2023-01-12T01:06:28.655Z,1188.7800
2023-01-12T01:06:39.854Z,1189.8400
2023-01-12T01:06:50.898Z,1193.0291
2023-01-12T01:07:01.966Z,1194.0970
2023-01-12T01:07:13.110Z,1190.9010
2023-01-12T01:07:24.147Z,1187.7220
2023-01-12T01:07:35.201Z,1193.0291
2023-01-12T01:07:46.418Z,1208.1450
2023-01-12T01:07:57.596Z,1191.9640
2023-01-12T01:08:08.795Z,1198.3840
2023-01-12T01:08:20.012Z,1200.5400
2023-01-12T01:08:31.191Z,1198.3840
2023-01-12T01:08:42.395Z,1212.5341
2023-01-12T01:08:53.450Z,1202.7030
2023-01-12T01:09:04.512Z,1204.8740
2023-01-12T01:09:15.677Z,1207.0520
2023-01-12T01:09:26.870Z,1210.3350
2023-01-12T01:09:38.070Z,1198.3840
2023-01-12T01:09:49.112Z,1211.4340
2023-01-12T01:10:00.187Z,1205.9620
2023-01-12T01:10:11.356Z,1215.8470
2023-01-12T01:10:22.557Z,1207.0520
2023-01-12T01:10:33.589Z,1207.0520
2023-01-12T01:10:44.640Z,1208.1450
2023-01-12T01:10:55.716Z,1202.7030
2023-01-12T01:11:06.787Z,1211.4340
2023-01-12T01:11:17.910Z,1205.9620
2023-01-12T01:11:29.114Z,1214.7410
2023-01-12T01:11:40.149Z,1209.2390
2023-01-12T01:11:51.194Z,1211.4340
2023-01-12T01:12:02.248Z,1207.0520
2023-01-12T01:12:13.295Z,1227.0220
2023-01-12T01:12:24.353Z,1220.2930
2023-01-12T01:12:35.424Z,1211.4340
2023-01-12T01:12:46.659Z,1215.8470
2023-01-12T01:12:57.703Z,1222.5270
2023-01-12T01:13:08.770Z,1221.4091
2023-01-12T01:13:19.932Z,1227.0220
2023-01-12T01:13:31.110Z,1222.5270
2023-01-12T01:13:42.301Z,1213.6360
2023-01-12T01:13:53.350Z,1213.6360
2023-01-12T01:14:04.422Z,1220.2930
2023-01-12T01:14:15.579Z,1231.5500
2023-01-12T01:14:26.785Z,1220.2930
2023-01-12T01:14:37.986Z,1215.8470
2023-01-12T01:14:49.023Z,1224.7710
2023-01-12T01:15:00.058Z,1197.3090
2023-01-12T01:15:11.281Z,1224.7710
2023-01-12T01:15:22.463Z,1229.2820
2023-01-12T01:15:33.646Z,1222.5270
2023-01-12T01:15:44.782Z,1227.0220
2023-01-12T01:15:55.899Z,1215.8470
2023-01-12T01:16:07.005Z,1219.1780
2023-01-12T01:16:18.109Z,1228.1510
2023-01-12T01:16:29.166Z,1223.6479
2023-01-12T01:16:40.221Z,1240.7061
2023-01-12T01:16:51.269Z,1233.8260
2023-01-12T01:17:02.340Z,1227.0220
2023-01-12T01:17:13.511Z,1233.8260
2023-01-12T01:17:24.704Z,1222.5270
2023-01-12T01:17:35.900Z,1227.0220
2023-01-12T01:17:47.130Z,1225.8950
2023-01-12T01:17:58.303Z,1227.0220
2023-01-12T01:18:09.350Z,1230.4150
2023-01-12T01:18:20.499Z,1229.2820
2023-01-12T01:18:31.586Z,1238.4041
2023-01-12T01:18:42.636Z,1233.8260
2023-01-12T01:18:53.670Z,1244.1750
2023-01-12T01:19:04.860Z,1251.1720
2023-01-12T01:19:16.480Z,1240.7061
2023-01-12T01:19:27.593Z,1229.2820
2023-01-12T01:19:38.795Z,1245.3361
2023-01-12T01:19:49.987Z,1248.8311
2023-01-12T01:20:01.216Z,1232.6870
2023-01-12T01:20:12.236Z,1236.1110
2023-01-12T01:20:23.268Z,1257.0620
2023-01-12T01:20:34.459Z,1238.4041
2023-01-12T01:20:45.747Z,1243.0170
2023-01-12T01:20:56.870Z,1248.8311
2023-01-12T01:21:08.060Z,1244.1750
2023-01-12T01:21:19.129Z,1253.5210
2023-01-12T01:21:30.211Z,1243.0170
2023-01-12T01:21:41.345Z,1243.0170
2023-01-12T01:21:52.541Z,1218.0660
2023-01-12T01:22:03.753Z,1241.8600
2023-01-12T01:22:14.785Z,1236.1110
2023-01-12T01:22:25.840Z,1232.6870
2023-01-12T01:22:37.021Z,1240.7061
2023-01-12T01:22:48.255Z,1241.8600
2023-01-12T01:22:59.427Z,1243.0170
2023-01-12T01:23:10.631Z,1252.3450
2023-01-12T01:23:21.822Z,1240.7061
2023-01-12T01:23:33.029Z,1243.0170
2023-01-12T01:23:44.150Z,1239.5540
2023-01-12T01:23:55.221Z,1247.6639
2023-01-12T01:24:06.320Z,1236.1110
2023-01-12T01:24:17.505Z,1257.0620
2023-01-12T01:24:28.550Z,1243.0170
2023-01-12T01:24:39.632Z,1240.7061
2023-01-12T01:24:50.672Z,1244.1750
2023-01-12T01:25:01.734Z,1247.6639
2023-01-12T01:25:12.881Z,1254.6990
2023-01-12T01:25:24.084Z,1252.3450
2023-01-12T01:25:35.158Z,1248.8311
2023-01-12T01:25:46.239Z,1245.3361
2023-01-12T01:25:57.341Z,1252.3450
2023-01-12T01:26:08.543Z,1246.4990
2023-01-12T01:26:19.740Z,1257.0620
2023-01-12T01:26:30.957Z,1247.6639
2023-01-12T01:26:42.166Z,1255.8800
2023-01-12T01:26:53.343Z,1250.0000
2023-01-12T01:27:04.546Z,1252.3450
2023-01-12T01:27:15.741Z,1247.6639
2023-01-12T01:27:26.949Z,1227.0220
2023-01-12T01:27:37.990Z,1253.5210
2023-01-12T01:27:49.070Z,1255.8800
2023-01-12T01:28:00.220Z,1250.0000
2023-01-12T01:28:11.421Z,1257.0620
2023-01-12T01:28:22.749Z,1248.8311
2023-01-12T01:28:33.821Z,1255.8800
2023-01-12T01:28:45.023Z,1253.5210
2023-01-12T01:28:56.226Z,1246.4990
2023-01-12T01:29:07.436Z,1247.6639
2023-01-12T01:29:18.654Z,1258.2469
2023-01-12T01:29:29.821Z,1253.5210
2023-01-12T01:29:41.029Z,1241.8600
2023-01-12T01:29:52.252Z,1255.8800
2023-01-12T01:30:03.438Z,1254.6990
2023-01-12T01:30:14.623Z,1257.0620
2023-01-12T01:30:25.822Z,1230.4150
2023-01-12T01:30:37.024Z,1261.8149
2023-01-12T01:30:48.270Z,1231.5500
2023-01-12T01:30:59.466Z,1248.8311
2023-01-12T01:31:10.639Z,1250.0000
2023-01-12T01:31:21.924Z,1246.4990
2023-01-12T01:31:33.086Z,1246.4990
2023-01-12T01:31:44.189Z,1252.3450
2023-01-12T01:31:55.461Z,1259.4340
2023-01-12T01:32:06.626Z,1250.0000
2023-01-12T01:32:17.675Z,1255.8800
2023-01-12T01:32:28.725Z,1257.0620
2023-01-12T01:32:39.777Z,1253.5210
2023-01-12T01:32:50.847Z,1259.4340
2023-01-12T01:33:01.980Z,1259.4340
2023-01-12T01:33:13.185Z,1259.4340
2023-01-12T01:33:24.401Z,1266.6030
2023-01-12T01:33:35.582Z,1252.3450
2023-01-12T01:33:46.787Z,1259.4340
2023-01-12T01:33:57.985Z,1261.8149
2023-01-12T01:34:09.189Z,1261.8149
2023-01-12T01:34:20.242Z,1248.8311
2023-01-12T01:34:31.320Z,1247.6639
2023-01-12T01:34:42.462Z,1267.8060
2023-01-12T01:34:53.673Z,1252.3450
2023-01-12T01:35:04.883Z,1265.4030
2023-01-12T01:35:16.066Z,1259.4340
2023-01-12T01:35:27.258Z,1259.4340
2023-01-12T01:35:38.483Z,1248.8311
2023-01-12T01:35:49.660Z,1251.1720
2023-01-12T01:36:00.865Z,1255.8800
2023-01-12T01:36:12.061Z,1252.3450
2023-01-12T01:36:23.267Z,1251.1720
2023-01-12T01:36:34.459Z,1260.6230
2023-01-12T01:36:45.528Z,1252.3450
2023-01-12T01:36:56.584Z,1251.1720
2023-01-12T01:37:07.750Z,1261.8149
2023-01-12T01:37:18.806Z,1266.6030
2023-01-12T01:37:29.866Z,1263.0090
2023-01-12T01:37:41.021Z,1272.6410
2023-01-12T01:37:52.250Z,1250.0000
2023-01-12T01:38:03.301Z,1255.8800
2023-01-12T01:38:14.380Z,1245.3361
2023-01-12T01:38:25.512Z,1258.2469
2023-01-12T01:38:36.551Z,1257.0620
2023-01-12T01:38:47.596Z,1272.6410
2023-01-12T01:38:58.782Z,1252.3450
2023-01-12T01:39:09.819Z,1253.5210
2023-01-12T01:39:20.883Z,1273.8550
2023-01-12T01:39:32.059Z,1259.4340
2023-01-12T01:39:43.279Z,1263.0090
2023-01-12T01:39:54.451Z,1260.6230
2023-01-12T01:40:05.666Z,1254.6990
2023-01-12T01:40:16.719Z,1254.6990
2023-01-12T01:40:27.782Z,1260.6230
2023-01-12T01:40:38.961Z,1267.8060
2023-01-12T01:40:50.037Z,1263.0090
2023-01-12T01:41:01.094Z,1257.0620
2023-01-12T01:41:12.220Z,1266.6030
2023-01-12T01:41:23.278Z,1269.0110
2023-01-12T01:41:34.309Z,1261.8149
2023-01-12T01:41:45.503Z,1269.0110
2023-01-12T01:41:56.722Z,1266.6030
2023-01-12T01:42:07.901Z,1260.6230
2023-01-12T01:42:18.954Z,1260.6230
2023-01-12T01:42:30.020Z,1260.6230
2023-01-12T01:42:41.180Z,1266.6030
2023-01-12T01:42:52.392Z,1267.8060
2023-01-12T01:43:03.640Z,1269.0110
2023-01-12T01:43:14.782Z,1265.4030
2023-01-12T01:43:26.023Z,1263.0090
2023-01-12T01:43:37.179Z,1265.4030
2023-01-12T01:43:48.379Z,1269.0110
2023-01-12T01:43:59.585Z,1238.4041
2023-01-12T01:44:10.782Z,1273.8550
2023-01-12T01:44:21.983Z,1257.0620
2023-01-12T01:44:33.042Z,1263.0090
2023-01-12T01:44:44.070Z,1266.6030
2023-01-12T01:44:55.273Z,1269.0110
2023-01-12T01:45:06.463Z,1269.0110
2023-01-12T01:45:17.501Z,1257.0620
2023-01-12T01:45:28.551Z,1266.6030
2023-01-12T01:45:39.739Z,1259.4340
2023-01-12T01:45:50.936Z,1259.4340
2023-01-12T01:46:02.182Z,1265.4030
2023-01-12T01:46:13.359Z,1266.6030
2023-01-12T01:46:24.587Z,1255.8800
2023-01-12T01:46:35.691Z,1237.2570
2023-01-12T01:46:46.825Z,1266.6030
2023-01-12T01:46:57.873Z,1263.0090
2023-01-12T01:47:09.033Z,1253.5210
2023-01-12T01:47:20.094Z,1259.4340
2023-01-12T01:47:31.153Z,1261.8149
2023-01-12T01:47:42.189Z,1259.4340
2023-01-12T01:47:53.250Z,1258.2469
2023-01-12T01:48:04.405Z,1264.2050
2023-01-12T01:48:15.579Z,1260.6230
2023-01-12T01:48:26.790Z,1258.2469
2023-01-12T01:48:37.980Z,1261.8149
2023-01-12T01:48:49.046Z,1271.4290
2023-01-12T01:49:00.131Z,1258.2469
2023-01-12T01:49:11.260Z,1258.2469
2023-01-12T01:49:22.461Z,1257.0620
2023-01-12T01:49:33.500Z,1254.6990
2023-01-12T01:49:44.582Z,1251.1720
2023-01-12T01:49:55.742Z,1257.0620
2023-01-12T01:50:06.959Z,1259.4340
2023-01-12T01:50:17.980Z,1267.8060
2023-01-12T01:50:29.031Z,1269.0110
2023-01-12T01:50:40.069Z,1266.6030
2023-01-12T01:50:51.111Z,1259.4340
2023-01-12T01:51:02.299Z,1257.0620
2023-01-12T01:51:13.509Z,1258.2469
2023-01-12T01:51:24.708Z,1257.0620
2023-01-12T01:51:35.900Z,1265.4030
2023-01-12T01:51:47.101Z,1260.6230
2023-01-12T01:51:58.176Z,1271.4290
2023-01-12T01:52:09.367Z,1252.3450
2023-01-12T01:52:20.385Z,1269.0110
2023-01-12T01:52:31.461Z,1240.7061
2023-01-12T01:52:42.643Z,1271.4290
2023-01-12T01:52:53.826Z,1266.6030
2023-01-12T01:53:04.904Z,1270.2190
2023-01-12T01:53:15.974Z,1270.2190
2023-01-12T01:53:27.015Z,1273.8550
2023-01-12T01:53:38.089Z,1266.6030
2023-01-12T01:53:49.190Z,1264.2050
2023-01-12T01:54:00.227Z,1263.0090
2023-01-12T01:54:11.287Z,1281.1899
2023-01-12T01:54:22.505Z,1267.8060
2023-01-12T01:54:33.549Z,1252.3450
2023-01-12T01:54:44.617Z,1273.8550
2023-01-12T01:54:55.751Z,1269.0110
2023-01-12T01:55:06.824Z,1278.7360
2023-01-12T01:55:17.892Z,1264.2050
2023-01-12T01:55:29.039Z,1277.5120
2023-01-12T01:55:40.241Z,1270.2190
2023-01-12T01:55:51.339Z,1276.2910
2023-01-12T01:56:02.382Z,1276.2910
2023-01-12T01:56:13.419Z,1271.4290
2023-01-12T01:56:24.491Z,1270.2190
2023-01-12T01:56:35.556Z,1278.7360
2023-01-12T01:56:46.619Z,1279.9620
2023-01-12T01:56:57.690Z,1283.6541
2023-01-12T01:57:08.746Z,1261.8149
2023-01-12T01:57:19.800Z,1269.0110
2023-01-12T01:57:30.892Z,1273.8550
2023-01-12T01:57:41.986Z,1269.0110
2023-01-12T01:57:53.028Z,1269.0110
2023-01-12T01:58:04.091Z,1283.6541
2023-01-12T01:58:15.176Z,1255.8800
2023-01-12T01:58:26.311Z,1255.8800
2023-01-12T01:58:37.414Z,1269.0110
2023-01-12T01:58:48.458Z,1273.8550
2023-01-12T01:58:59.508Z,1283.6541
2023-01-12T01:59:10.587Z,1283.6541
2023-01-12T01:59:21.683Z,1269.0110
2023-01-12T01:59:32.877Z,1271.4290
2023-01-12T01:59:43.927Z,1276.2910
2023-01-12T01:59:55.001Z,1283.6541
2023-01-12T02:00:06.166Z,1270.2190
2023-01-12T02:00:17.206Z,1284.8890
2023-01-12T02:00:28.246Z,1283.6541
2023-01-12T02:00:39.456Z,1291.1030
2023-01-12T02:00:50.562Z,1279.9620
2023-01-12T02:01:01.652Z,1286.1270
2023-01-12T02:01:12.784Z,1284.8890
2023-01-12T02:01:23.962Z,1278.7360
2023-01-12T02:01:35.225Z,1278.7360
2023-01-12T02:01:46.693Z,1282.4210
2023-01-12T02:01:57.826Z,1270.2190
2023-01-12T02:02:08.911Z,1272.6410
2023-01-12T02:02:19.991Z,1286.1270
2023-01-12T02:02:31.115Z,1276.2910
2023-01-12T02:02:42.177Z,1281.1899
2023-01-12T02:02:53.306Z,1270.2190
2023-01-12T02:03:04.464Z,1269.0110
2023-01-12T02:03:15.619Z,1276.2910
2023-01-12T02:03:26.799Z,1272.6410
2023-01-12T02:03:37.996Z,1283.6541
2023-01-12T02:03:49.202Z,1284.8890
2023-01-12T02:04:00.388Z,1286.1270
2023-01-12T02:04:11.603Z,1276.2910
2023-01-12T02:04:22.840Z,1276.2910
2023-01-12T02:04:33.906Z,1292.3521
2023-01-12T02:04:45.007Z,1287.3669
2023-01-12T02:04:56.086Z,1286.1270
2023-01-12T02:05:07.127Z,1283.6541
2023-01-12T02:05:18.186Z,1286.1270
2023-01-12T02:05:29.347Z,1294.8590
2023-01-12T02:05:40.551Z,1284.8890
2023-01-12T02:05:51.746Z,1298.6379
2023-01-12T02:06:02.959Z,1294.8590
2023-01-12T02:06:13.987Z,1294.8590
2023-01-12T02:06:25.039Z,1291.1030
2023-01-12T02:06:36.224Z,1299.9030
2023-01-12T02:06:47.266Z,1301.1700
2023-01-12T02:06:58.328Z,1299.9030
2023-01-12T02:07:09.513Z,1288.6100
2023-01-12T02:07:20.564Z,1298.6379
2023-01-12T02:07:31.634Z,1291.1030
2023-01-12T02:07:42.800Z,1298.6379
2023-01-12T02:07:53.992Z,1294.8590
2023-01-12T02:08:05.176Z,1284.8890
2023-01-12T02:08:16.513Z,1298.6379